Terminal Aerodrome Forecast
Issued by NWS

Home | Current Version | Previous Version | Text Only | Print | Product List | Glossary On
Versions: 1 2 3 4 5 6 7 8 9 10 11 12 13
000
FTUS46 KPDT 300500
TAFPSC
TAF
KPSC 300522Z 3006/3106 VRB05KT P6SM FEW150 SCT200
     FM301800 35006KT P6SM FEW250
     FM310300 VRB05KT P6SM SKC=

USA.gov is the U.S. government's official web portal to all federal, state and local government web resources and services.